N1EP CYKF-CYKF
Flight info
| Callsign | N1EP |
|---|---|
| Flight time | 0h 3m |
| Altitude | |
| Route | |
| Aircraft |
Departure
| Time | 2026-05-03 23:06 |
|---|---|
| Airport | Region of Waterloo International Airport (CYKF) |
Arrival
| Time | 2026-05-03 23:10 |
|---|---|
| Airport | Region of Waterloo International Airport (CYKF) |
| Time | Latitude | Longitude | Altitude | Speed | Heading |
|---|---|---|---|---|---|
| 2026-05-03 22:59 | 43.45655 | -80.38728 | 1029 ft | 0 kts | 172° |
| 2026-05-03 23:00 | 43.45649 | -80.38723 | 1029 ft | 7 kts | 128° |
| 2026-05-03 23:01 | 43.45727 | -80.38639 | 1030 ft | 20 kts | 36° |
| 2026-05-03 23:01 | 43.45788 | -80.38511 | 1031 ft | 14 kts | 62° |
| 2026-05-03 23:01 | 43.45834 | -80.38378 | 1031 ft | 17 kts | 66° |
| 2026-05-03 23:01 | 43.45890 | -80.38206 | 1033 ft | 26 kts | 64° |
| 2026-05-03 23:02 | 43.45941 | -80.38061 | 1035 ft | 11 kts | 65° |
| 2026-05-03 23:02 | 43.45999 | -80.37884 | 1038 ft | 22 kts | 63° |
| 2026-05-03 23:02 | 43.46065 | -80.37690 | 1041 ft | 28 kts | 65° |
| 2026-05-03 23:02 | 43.46134 | -80.37486 | 1044 ft | 22 kts | 65° |
| 2026-05-03 23:03 | 43.46201 | -80.37287 | 1047 ft | 25 kts | 65° |
| 2026-05-03 23:03 | 43.46264 | -80.37103 | 1049 ft | 15 kts | 66° |
| 2026-05-03 23:03 | 43.46292 | -80.37019 | 1050 ft | 5 kts | 66° |
| 2026-05-03 23:03 | 43.46312 | -80.36961 | 1051 ft | 10 kts | 65° |
| 2026-05-03 23:04 | 43.46349 | -80.36848 | 1052 ft | 16 kts | 66° |
| 2026-05-03 23:04 | 43.46398 | -80.36699 | 1054 ft | 15 kts | 65° |
| 2026-05-03 23:04 | 43.46430 | -80.36611 | 1056 ft | 8 kts | 49° |
| 2026-05-03 23:04 | 43.46471 | -80.36577 | 1056 ft | 7 kts | 12° |
| 2026-05-03 23:05 | 43.46504 | -80.36565 | 1057 ft | 0 kts | 13° |
| 2026-05-03 23:05 | 43.46531 | -80.36560 | 1057 ft | 11 kts | 356° |
| 2026-05-03 23:05 | 43.46576 | -80.36623 | 1056 ft | 9 kts | 285° |
| 2026-05-03 23:05 | 43.46522 | -80.36827 | 1053 ft | 58 kts | 245° |
| 2026-05-03 23:06 | 43.46250 | -80.37677 | 1253 ft | 115 kts | 250° |
| 2026-05-03 23:06 | 43.46017 | -80.38809 | 1805 ft | 133 kts | 258° |
| 2026-05-03 23:06 | 43.45691 | -80.39845 | 1980 ft | 114 kts | 233° |
| 2026-05-03 23:06 | 43.44978 | -80.40317 | 2007 ft | 123 kts | 192° |
| 2026-05-03 23:07 | 43.44144 | -80.40046 | 2074 ft | 126 kts | 149° |
| 2026-05-03 23:07 | 43.43731 | -80.39060 | 2269 ft | 123 kts | 88° |
| 2026-05-03 23:07 | 43.44058 | -80.37897 | 1960 ft | 137 kts | 58° |
| 2026-05-03 23:07 | 43.44469 | -80.36745 | 1802 ft | 135 kts | 61° |
| 2026-05-03 23:08 | 43.44961 | -80.35675 | 1704 ft | 129 kts | 44° |
| 2026-05-03 23:08 | 43.45577 | -80.34854 | 1651 ft | 120 kts | 31° |
| 2026-05-03 23:08 | 43.46300 | -80.34547 | 1597 ft | 99 kts | 350° |
| 2026-05-03 23:08 | 43.46910 | -80.34904 | 1457 ft | 94 kts | 313° |
| 2026-05-03 23:09 | 43.46968 | -80.35635 | 1321 ft | 77 kts | 228° |
| 2026-05-03 23:09 | 43.46731 | -80.36256 | 1191 ft | 77 kts | 248° |
| 2026-05-03 23:09 | 43.46501 | -80.36890 | 1069 ft | 65 kts | 245° |
| 2026-05-03 23:09 | 43.46335 | -80.37378 | 1045 ft | 50 kts | 244° |
| 2026-05-03 23:10 | 43.46249 | -80.37629 | 1042 ft | 15 kts | 245° |
| 2026-05-03 23:10 | 43.46172 | -80.37694 | 1041 ft | 7 kts | 161° |
| 2026-05-03 23:10 | 43.46116 | -80.37703 | 1041 ft | 5 kts | 216° |
| 2026-05-03 23:10 | 43.46107 | -80.37696 | 1041 ft | 4 kts | 61° |
| 2026-05-03 23:11 | 43.46123 | -80.37695 | 1042 ft | 0 kts | 17° |
| 2026-05-03 23:15 | 43.46132 | -80.37691 | 1042 ft | 9 kts | 15° |
| 2026-05-03 23:15 | 43.46198 | -80.37770 | 1036 ft | 10 kts | 253° |
| 2026-05-03 23:15 | 43.46104 | -80.38052 | 1036 ft | 73 kts | 244° |
| 2026-05-03 23:16 | 43.45896 | -80.38925 | 1402 ft | 102 kts | 250° |
| 2026-05-03 23:16 | 43.45450 | -80.39767 | 1918 ft | 125 kts | 239° |
| 2026-05-03 23:16 | 43.44703 | -80.40480 | 2302 ft | 152 kts | 199° |
| 2026-05-03 23:16 | 43.43718 | -80.40250 | 2436 ft | 137 kts | 145° |
| 2026-05-03 23:17 | 43.43293 | -80.39133 | 2396 ft | 134 kts | 100° |
| 2026-05-03 23:17 | 43.43373 | -80.37849 | 2187 ft | 135 kts | 69° |
| 2026-05-03 23:17 | 43.43676 | -80.36633 | 2010 ft | 135 kts | 68° |
| 2026-05-03 23:17 | 43.44032 | -80.35434 | 1833 ft | 133 kts | 62° |
| 2026-05-03 23:18 | 43.44541 | -80.34435 | 1828 ft | 123 kts | 41° |
| 2026-05-03 23:18 | 43.45243 | -80.33796 | 1798 ft | 117 kts | 11° |
| 2026-05-03 23:18 | 43.46022 | -80.33821 | 1774 ft | 116 kts | 341° |
| 2026-05-03 23:18 | 43.46794 | -80.34231 | 1609 ft | 117 kts | 322° |
| 2026-05-03 23:19 | 43.47142 | -80.35088 | 1523 ft | 101 kts | 256° |
| 2026-05-03 23:19 | 43.46880 | -80.35823 | 1258 ft | 81 kts | 240° |
| 2026-05-03 23:19 | 43.46619 | -80.36540 | 1140 ft | 78 kts | 244° |
| 2026-05-03 23:19 | 43.46422 | -80.37121 | 1056 ft | 56 kts | 244° |
| 2026-05-03 23:20 | 43.46281 | -80.37555 | 1044 ft | 61 kts | 242° |
| 2026-05-03 23:20 | 43.46040 | -80.38313 | 1257 ft | 98 kts | 250° |
| 2026-05-03 23:20 | 43.45791 | -80.39234 | 1704 ft | 105 kts | 244° |
| 2026-05-03 23:20 | 43.45382 | -80.40108 | 2105 ft | 119 kts | 228° |
| 2026-05-03 23:21 | 43.44593 | -80.40475 | 2564 ft | 130 kts | 181° |
| 2026-05-03 23:21 | 43.43861 | -80.39746 | 2807 ft | 139 kts | 113° |
| 2026-05-03 23:21 | 43.43917 | -80.38519 | 2504 ft | 123 kts | 71° |
| 2026-05-03 23:21 | 43.44248 | -80.37467 | 2225 ft | 113 kts | 59° |
| 2026-05-03 23:22 | 43.45011 | -80.35436 | 2093 ft | 125 kts | 61° |
| 2026-05-03 23:22 | 43.45454 | -80.34545 | 1890 ft | 107 kts | 29° |
| 2026-05-03 23:22 | 43.46073 | -80.34367 | 1688 ft | 81 kts | 338° |
| 2026-05-03 23:23 | 43.46607 | -80.34659 | 1566 ft | 73 kts | 313° |
| 2026-05-03 23:23 | 43.46954 | -80.35216 | 1471 ft | 85 kts | 286° |
| 2026-05-03 23:23 | 43.46876 | -80.35857 | 1319 ft | 64 kts | 240° |
| 2026-05-03 23:23 | 43.46684 | -80.36351 | 1157 ft | 55 kts | 245° |
| 2026-05-03 23:24 | 43.46583 | -80.36661 | 1056 ft | 42 kts | 247° |
| 2026-05-03 23:24 | 43.46320 | -80.37511 | 1198 ft | 94 kts | 245° |
| 2026-05-03 23:24 | 43.46061 | -80.38407 | 1446 ft | 113 kts | 251° |
| 2026-05-03 23:24 | 43.45706 | -80.39390 | 2003 ft | 113 kts | 230° |
| 2026-05-03 23:25 | 43.45198 | -80.39734 | 2368 ft | 122 kts | 199° |
| 2026-05-03 23:25 | 43.44343 | -80.39468 | 2983 ft | 143 kts | 148° |
| 2026-05-03 23:25 | 43.43965 | -80.38169 | 3386 ft | 160 kts | 77° |
| 2026-05-03 23:25 | 43.44391 | -80.36588 | 3043 ft | 192 kts | 63° |
| 2026-05-03 23:26 | 43.44956 | -80.35022 | 2832 ft | 158 kts | 59° |
| 2026-05-03 23:26 | 43.45395 | -80.33844 | 2574 ft | 127 kts | 60° |
| 2026-05-03 23:26 | 43.45788 | -80.32829 | 2340 ft | 115 kts | 60° |
| 2026-05-03 23:26 | 43.46121 | -80.31863 | 2137 ft | 107 kts | 62° |
| 2026-05-03 23:27 | 43.46480 | -80.30994 | 1939 ft | 103 kts | 52° |
| 2026-05-03 23:27 | 43.47078 | -80.30512 | 1967 ft | 104 kts | 1° |
| 2026-05-03 23:27 | 43.47770 | -80.30839 | 1757 ft | 116 kts | 324° |
| 2026-05-03 23:27 | 43.48224 | -80.31675 | 1541 ft | 89 kts | 270° |
| 2026-05-03 23:28 | 43.48036 | -80.32418 | 1395 ft | 96 kts | 242° |
| 2026-05-03 23:28 | 43.47737 | -80.33232 | 1443 ft | 94 kts | 245° |
| 2026-05-03 23:28 | 43.47464 | -80.34069 | 1469 ft | 91 kts | 241° |
| 2026-05-03 23:28 | 43.47207 | -80.34832 | 1448 ft | 86 kts | 248° |
| 2026-05-03 23:29 | 43.46981 | -80.35494 | 1310 ft | 72 kts | 245° |
| 2026-05-03 23:29 | 43.46756 | -80.36136 | 1203 ft | 74 kts | 243° |
| 2026-05-03 23:29 | 43.46561 | -80.36724 | 1103 ft | 69 kts | 247° |
| 2026-05-03 23:29 | 43.46372 | -80.37264 | 1063 ft | 58 kts | 243° |
| 2026-05-03 23:30 | 43.46218 | -80.37724 | 1042 ft | 47 kts | 244° |
| 2026-05-03 23:30 | 43.46112 | -80.38055 | 1036 ft | 39 kts | 246° |
| 2026-05-03 23:30 | 43.45981 | -80.38413 | 1032 ft | 26 kts | 244° |
| 2026-05-03 23:30 | 43.45904 | -80.38633 | 1033 ft | 28 kts | 244° |
| 2026-05-03 23:31 | 43.45814 | -80.38888 | 1031 ft | 21 kts | 241° |
| 2026-05-03 23:31 | 43.45731 | -80.38918 | 1028 ft | 24 kts | 168° |
| 2026-05-03 23:31 | 43.45626 | -80.38850 | 1028 ft | 14 kts | 154° |
| 2026-05-03 23:31 | 43.45587 | -80.38822 | 1028 ft | 0 kts | 150° |